createdAt,value
2022-10-21T00:00:01.080Z,20.6
2022-10-21T00:01:04.798Z,20.7
2022-10-21T00:02:01.768Z,20.7
2022-10-21T00:03:01.112Z,20.6
2022-10-21T00:04:01.082Z,20.6
2022-10-21T00:05:01.467Z,20.6
2022-10-21T00:06:07.632Z,20.8
2022-10-21T00:07:01.102Z,22.1
2022-10-21T00:08:01.123Z,22.3
2022-10-21T00:09:01.499Z,22.8
2022-10-21T00:10:01.134Z,23.4
2022-10-21T00:11:10.599Z,23.7
2022-10-21T00:12:01.366Z,24.3
2022-10-21T00:13:02.067Z,24.5
2022-10-21T00:14:01.093Z,24.5
2022-10-21T00:15:00.743Z,24.6
2022-10-21T00:16:13.419Z,25
2022-10-21T00:17:01.074Z,24.8
2022-10-21T00:18:01.087Z,24.6
2022-10-21T00:19:01.072Z,24.5
2022-10-21T00:20:01.056Z,24.6
2022-10-21T00:21:16.844Z,24.8
2022-10-21T00:22:02.318Z,25.5
2022-10-21T00:23:01.505Z,26.4
2022-10-21T00:24:01.181Z,27.2
2022-10-21T00:25:01.270Z,27.6
2022-10-21T00:26:01.127Z,28
2022-10-21T00:27:01.146Z,28.4
2022-10-21T00:28:01.537Z,28.9
2022-10-21T00:29:01.573Z,29.3
2022-10-21T00:30:01.198Z,29.9
2022-10-21T00:31:01.190Z,30
2022-10-21T00:32:01.193Z,30.3
2022-10-21T00:33:03.107Z,30.3
2022-10-21T00:34:01.466Z,30.4
2022-10-21T00:35:02.205Z,30.5
2022-10-21T00:36:01.204Z,31.3
2022-10-21T00:37:01.115Z,32.3
2022-10-21T00:38:01.105Z,32.7
2022-10-21T00:39:01.110Z,33
2022-10-21T00:40:01.120Z,32.9
2022-10-21T00:41:01.106Z,33.1
2022-10-21T00:42:01.133Z,33.2
2022-10-21T00:43:01.955Z,33.2
2022-10-21T00:44:01.528Z,33.5
2022-10-21T00:45:01.220Z,33.7
2022-10-21T00:46:01.151Z,33.3
2022-10-21T00:47:01.171Z,33.3
2022-10-21T00:48:01.062Z,33.5
2022-10-21T00:49:01.173Z,33.3
2022-10-21T00:50:01.076Z,32.9
2022-10-21T00:51:01.086Z,32.9
2022-10-21T00:52:01.401Z,33
2022-10-21T00:53:01.395Z,33.4
2022-10-21T00:54:02.285Z,33.5
2022-10-21T00:55:02.109Z,33.7
2022-10-21T00:56:01.119Z,33.8
2022-10-21T00:57:01.108Z,34
2022-10-21T00:58:01.045Z,34.7
2022-10-21T00:59:01.051Z,34.7
2022-10-21T01:00:01.137Z,34.7
2022-10-21T01:01:01.163Z,34.6
2022-10-21T01:02:01.902Z,34.6
2022-10-21T01:03:00.643Z,34.5
2022-10-21T01:04:00.227Z,35.4
2022-10-21T01:04:59.919Z,36.5
2022-10-21T01:05:59.531Z,37.9
2022-10-21T01:07:01.119Z,38.3
2022-10-21T01:08:01.110Z,38.5
2022-10-21T01:09:01.201Z,38.4
2022-10-21T01:10:01.870Z,38.5
2022-10-21T01:11:01.105Z,38.7
2022-10-21T01:12:01.525Z,39.6
2022-10-21T01:13:02.208Z,40.2
2022-10-21T01:14:02.102Z,40.6
2022-10-21T01:16:01.146Z,40.6
2022-10-21T01:17:01.148Z,40.4
2022-10-21T01:18:01.155Z,40.3
2022-10-21T01:19:01.553Z,40.2
2022-10-21T01:20:01.073Z,40.2
2022-10-21T01:21:01.794Z,40.3
2022-10-21T01:22:01.088Z,40.9
2022-10-21T01:23:01.069Z,42.3
2022-10-21T01:24:01.597Z,43.1
2022-10-21T01:25:02.068Z,42.9
2022-10-21T01:26:02.069Z,43.3
2022-10-21T01:27:01.105Z,42.9
2022-10-21T01:28:01.108Z,42.5
2022-10-21T01:29:01.129Z,42.5
2022-10-21T01:30:01.118Z,42.4
2022-10-21T01:31:01.151Z,42.1
2022-10-21T01:32:01.643Z,42.2
2022-10-21T01:33:01.300Z,42.3
2022-10-21T01:34:01.145Z,42.2
2022-10-21T01:35:01.183Z,42
2022-10-21T01:36:01.159Z,41.6
2022-10-21T01:37:04.532Z,41.3
2022-10-21T01:38:01.859Z,41
2022-10-21T01:39:02.616Z,40.9
2022-10-21T01:40:01.692Z,40.8
2022-10-21T01:41:02.102Z,40.8
2022-10-21T01:42:07.638Z,40.7
2022-10-21T01:43:01.122Z,41.1
2022-10-21T01:44:01.623Z,42
2022-10-21T01:45:01.120Z,43
2022-10-21T01:46:01.143Z,43.9
2022-10-21T01:47:10.300Z,44.1
2022-10-21T01:48:01.229Z,44
2022-10-21T01:49:01.547Z,45.9
2022-10-21T01:50:02.229Z,45.8
2022-10-21T01:51:01.181Z,45.8
2022-10-21T01:52:13.398Z,46
2022-10-21T01:53:01.086Z,46.1
2022-10-21T01:54:01.091Z,45.9
2022-10-21T01:55:01.068Z,45.7
2022-10-21T01:56:01.078Z,45.5
2022-10-21T01:57:15.762Z,45.7
2022-10-21T01:58:01.468Z,46
2022-10-21T01:59:01.105Z,45.7
2022-10-21T02:00:01.044Z,45.8
2022-10-21T02:01:01.187Z,45.9
2022-10-21T02:02:01.136Z,46.2
2022-10-21T02:03:01.126Z,46.1
2022-10-21T02:04:01.127Z,47
2022-10-21T02:05:01.137Z,47.6
2022-10-21T02:06:01.153Z,47.6
2022-10-21T02:07:01.146Z,48.3
2022-10-21T02:08:01.183Z,49.1
2022-10-21T02:09:01.167Z,49.8
2022-10-21T02:10:01.076Z,49.9
2022-10-21T02:11:01.057Z,53.5
2022-10-21T02:12:01.067Z,55.5
2022-10-21T02:13:00.681Z,54.9
2022-10-21T02:14:00.261Z,54.9
2022-10-21T02:14:59.856Z,55.4
2022-10-21T02:16:01.551Z,55.9
2022-10-21T02:17:01.352Z,55.5
2022-10-21T02:18:02.138Z,55.5
2022-10-21T02:19:01.689Z,55.8
2022-10-21T02:20:00.797Z,56.6
2022-10-21T02:21:01.624Z,56.6
2022-10-21T02:22:01.151Z,56.6
2022-10-21T02:23:01.157Z,56.8
2022-10-21T02:24:01.166Z,56.7
2022-10-21T02:25:01.226Z,56.6
2022-10-21T02:26:01.197Z,56.1
2022-10-21T02:27:01.080Z,56.2
2022-10-21T02:28:01.084Z,56
2022-10-21T02:29:01.117Z,56.1
2022-10-21T02:30:01.093Z,56.3
2022-10-21T02:31:01.133Z,56.3
2022-10-21T02:32:01.119Z,56.2
2022-10-21T02:33:00.791Z,56.1
2022-10-21T02:34:00.612Z,55.7
2022-10-21T02:35:00.275Z,55.6
2022-10-21T02:35:59.921Z,55.5
2022-10-21T02:36:59.597Z,55.6
2022-10-21T02:38:01.467Z,55.6
2022-10-21T02:39:02.188Z,55.7
2022-10-21T02:40:02.173Z,56.1
2022-10-21T02:41:02.005Z,55.8
2022-10-21T02:42:02.098Z,55.6
2022-10-21T02:43:01.467Z,56
2022-10-21T02:44:01.243Z,56.5
2022-10-21T02:45:01.145Z,56.6
2022-10-21T02:46:01.107Z,56.9
2022-10-21T02:47:01.180Z,56.5
2022-10-21T02:48:00.798Z,56.5
2022-10-21T02:49:00.485Z,56.3
2022-10-21T02:50:00.184Z,56
2022-10-21T02:50:59.905Z,56.1
2022-10-21T02:51:59.739Z,56
2022-10-21T02:53:01.925Z,55.7
2022-10-21T02:54:02.493Z,55.6
2022-10-21T02:55:01.161Z,55.4
2022-10-21T02:56:01.178Z,55.2
2022-10-21T02:57:01.787Z,55.4
2022-10-21T02:58:01.085Z,55.3
2022-10-21T02:59:01.066Z,55.6
2022-10-21T03:00:01.125Z,55.4
2022-10-21T03:01:01.186Z,55
2022-10-21T03:02:01.129Z,54.6
2022-10-21T03:03:01.102Z,53.9
2022-10-21T03:04:01.191Z,52.5
2022-10-21T03:05:01.436Z,51.5
2022-10-21T03:06:02.138Z,52
2022-10-21T03:07:01.133Z,52.9
2022-10-21T03:08:01.141Z,52.5
2022-10-21T03:09:01.225Z,52.2
2022-10-21T03:10:01.309Z,51.8
2022-10-21T03:11:01.162Z,51.7
2022-10-21T03:12:01.149Z,51.6
2022-10-21T03:13:01.273Z,51.6
2022-10-21T03:14:01.875Z,51.4
2022-10-21T03:15:02.616Z,51.2
2022-10-21T03:16:01.095Z,51.1
2022-10-21T03:17:01.095Z,50.9
2022-10-21T03:18:01.210Z,51.1
2022-10-21T03:19:01.258Z,50.9
2022-10-21T03:20:01.521Z,50.9
2022-10-21T03:21:01.236Z,50.8
2022-10-21T03:22:01.113Z,50.8
2022-10-21T03:23:03.553Z,50.7
2022-10-21T03:24:01.045Z,50.5
2022-10-21T03:25:01.143Z,50.1
2022-10-21T03:26:01.156Z,49.7
2022-10-21T03:27:01.148Z,48.6
2022-10-21T03:28:06.357Z,48.4
2022-10-21T03:29:01.067Z,48.4
2022-10-21T03:30:01.064Z,47.9
2022-10-21T03:31:01.080Z,46.8
2022-10-21T03:32:02.037Z,46.5
2022-10-21T03:33:08.471Z,46.2
2022-10-21T03:34:01.793Z,46
2022-10-21T03:35:01.390Z,46
2022-10-21T03:36:01.285Z,45.7
2022-10-21T03:37:01.439Z,45.6
2022-10-21T03:38:12.646Z,44
2022-10-21T03:39:02.784Z,43.7
2022-10-21T03:40:01.331Z,43
2022-10-21T03:41:02.582Z,42.6
2022-10-21T03:42:01.145Z,42.1
2022-10-21T03:43:15.445Z,41.7
2022-10-21T03:44:01.450Z,41.2
2022-10-21T03:45:01.062Z,40.9
2022-10-21T03:46:01.245Z,40.6
2022-10-21T03:47:01.085Z,40.3
2022-10-21T03:48:01.067Z,39.5
2022-10-21T03:49:04.248Z,39.2
2022-10-21T03:50:01.468Z,39.5
2022-10-21T03:51:01.051Z,39.2
2022-10-21T03:52:01.093Z,38.7
2022-10-21T03:53:02.418Z,38.2
2022-10-21T03:54:01.035Z,37.5
2022-10-21T03:55:01.204Z,37.8
2022-10-21T03:56:01.239Z,37.8
2022-10-21T03:57:01.236Z,37.7
2022-10-21T03:58:01.255Z,37.5
2022-10-21T03:59:01.151Z,37.1
2022-10-21T04:00:01.222Z,36.8
2022-10-21T04:01:01.062Z,36.8
2022-10-21T04:02:01.131Z,36.4
2022-10-21T04:03:01.083Z,36
2022-10-21T04:04:01.317Z,36.4
2022-10-21T04:05:01.487Z,36.5
2022-10-21T04:06:01.219Z,36.3
2022-10-21T04:07:01.921Z,36.2
2022-10-21T04:08:03.065Z,36.1
2022-10-21T04:09:01.213Z,36.1
2022-10-21T04:10:01.549Z,36.1
2022-10-21T04:11:01.136Z,35.9
2022-10-21T04:12:01.165Z,35.3
2022-10-21T04:13:01.166Z,35.6
2022-10-21T04:14:02.193Z,35.7
2022-10-21T04:15:01.154Z,35.5
2022-10-21T04:16:01.161Z,35.5
2022-10-21T04:17:07.455Z,34.9
2022-10-21T04:18:01.079Z,34.8
2022-10-21T04:19:01.062Z,34.7
2022-10-21T04:20:01.092Z,34.4
2022-10-21T04:21:01.085Z,34.2
2022-10-21T04:22:01.082Z,34.3
2022-10-21T04:23:01.107Z,34.3
2022-10-21T04:24:01.163Z,34.5
2022-10-21T04:25:03.943Z,34.3
2022-10-21T04:26:02.718Z,34.3
2022-10-21T04:27:01.150Z,34.3
2022-10-21T04:28:01.129Z,34.2
2022-10-21T04:29:01.172Z,33.8
2022-10-21T04:30:01.315Z,34
2022-10-21T04:31:01.692Z,33.7
2022-10-21T04:32:02.658Z,33.4
2022-10-21T04:33:02.061Z,33.3
2022-10-21T04:34:01.863Z,33.2
2022-10-21T04:35:01.469Z,33.3
2022-10-21T04:36:01.184Z,33.4
2022-10-21T04:37:04.131Z,33.1
2022-10-21T04:38:01.145Z,33.2
2022-10-21T04:39:01.401Z,33.2
2022-10-21T04:40:01.326Z,33
2022-10-21T04:41:02.349Z,32.9
2022-10-21T04:42:01.430Z,32.6
2022-10-21T04:43:02.045Z,32.6
2022-10-21T04:44:02.143Z,32.8
2022-10-21T04:45:01.168Z,32.6
2022-10-21T04:46:01.489Z,32.6
2022-10-21T04:47:01.045Z,32.7
2022-10-21T04:48:01.169Z,33.1
2022-10-21T04:49:01.181Z,32.9
2022-10-21T04:50:01.198Z,32.9
2022-10-21T04:51:01.885Z,32.9
2022-10-21T04:52:01.967Z,33
2022-10-21T04:53:01.088Z,33
2022-10-21T04:54:01.105Z,32.6
2022-10-21T04:55:01.101Z,32
2022-10-21T04:56:01.105Z,32.3
2022-10-21T04:57:01.122Z,32.2
2022-10-21T04:58:01.451Z,31.9
2022-10-21T04:59:01.267Z,32.1
2022-10-21T05:00:01.310Z,32
2022-10-21T05:01:01.222Z,31.9
2022-10-21T05:03:01.733Z,31.9
2022-10-21T05:04:02.911Z,31.9
2022-10-21T05:05:01.735Z,31.8
2022-10-21T05:06:01.307Z,31.9
2022-10-21T05:07:01.232Z,31.8
2022-10-21T05:08:01.223Z,31.7
2022-10-21T05:09:05.189Z,31.9
2022-10-21T05:10:01.608Z,32.1
2022-10-21T05:11:01.023Z,31.9
2022-10-21T05:12:00.866Z,32.2
2022-10-21T05:13:01.652Z,32.3
2022-10-21T05:14:07.366Z,32.2
2022-10-21T05:15:01.311Z,32.4
2022-10-21T05:16:01.945Z,31.9
2022-10-21T05:17:01.027Z,31.9
2022-10-21T05:18:01.185Z,32.2
2022-10-21T05:19:10.942Z,32
2022-10-21T05:20:01.841Z,32.1
2022-10-21T05:21:00.636Z,32.1
2022-10-21T05:22:00.240Z,32.4
2022-10-21T05:22:59.928Z,32.5
2022-10-21T05:24:15.247Z,32.6
2022-10-21T05:25:01.265Z,32.7
2022-10-21T05:26:01.177Z,32.7
2022-10-21T05:27:01.766Z,32.7
2022-10-21T05:28:01.448Z,32.8
2022-10-21T05:29:02.124Z,32.8
2022-10-21T05:30:04.829Z,32.8
2022-10-21T05:31:02.155Z,32.9
2022-10-21T05:32:02.107Z,32.9
2022-10-21T05:33:02.043Z,32.8
2022-10-21T05:34:01.367Z,32.6
2022-10-21T05:35:01.486Z,32.4
2022-10-21T05:36:02.068Z,32.3
2022-10-21T05:37:02.082Z,32.3
2022-10-21T05:38:01.058Z,32.4
2022-10-21T05:39:01.165Z,32.4
2022-10-21T05:40:01.287Z,32.4
2022-10-21T05:41:01.072Z,32.3
2022-10-21T05:42:01.203Z,32.2
2022-10-21T05:43:01.238Z,32.2
2022-10-21T05:44:01.489Z,32
2022-10-21T05:45:01.110Z,32
2022-10-21T05:46:01.868Z,31.8
2022-10-21T05:47:01.470Z,31.7
2022-10-21T05:48:01.506Z,31.7
2022-10-21T05:49:01.267Z,31.1
2022-10-21T05:50:01.288Z,30.9
2022-10-21T05:51:01.959Z,30.7
2022-10-21T05:52:01.265Z,30.3
2022-10-21T05:53:01.080Z,30.3
2022-10-21T05:54:01.606Z,30.3
2022-10-21T05:55:01.161Z,30
2022-10-21T05:56:01.209Z,29.8
2022-10-21T05:57:01.075Z,30
2022-10-21T05:58:01.095Z,30
2022-10-21T05:59:01.107Z,30
2022-10-21T06:00:01.462Z,29.9
2022-10-21T06:01:01.184Z,29.6
2022-10-21T06:02:02.066Z,29.5
2022-10-21T06:03:01.951Z,29.1
2022-10-21T06:04:01.046Z,28
2022-10-21T06:05:01.167Z,27.5
2022-10-21T06:06:01.319Z,27
2022-10-21T06:07:01.534Z,26.5
2022-10-21T06:08:01.602Z,26.2
2022-10-21T06:09:02.356Z,25.6
2022-10-21T06:10:02.062Z,25.4
2022-10-21T06:11:02.702Z,25.3
2022-10-21T06:12:01.900Z,24.9
2022-10-21T06:13:01.727Z,24.9
2022-10-21T06:14:01.162Z,24.7
2022-10-21T06:15:01.560Z,24.9
2022-10-21T06:16:01.660Z,24.7
2022-10-21T06:17:02.297Z,24.8
2022-10-21T06:18:01.139Z,24.3
2022-10-21T06:19:01.583Z,24.5
2022-10-21T06:20:01.403Z,24.6
2022-10-21T06:21:02.116Z,24.7
2022-10-21T06:22:01.278Z,24.3
2022-10-21T06:23:01.292Z,24.2
2022-10-21T06:24:01.310Z,24.2
2022-10-21T06:25:04.094Z,23.9
2022-10-21T06:26:01.163Z,24
2022-10-21T06:27:01.131Z,24.3
2022-10-21T06:28:01.528Z,23.6
2022-10-21T06:29:01.109Z,23.6
2022-10-21T06:30:01.084Z,23.6
2022-10-21T06:31:01.099Z,23.4
2022-10-21T06:32:01.225Z,23.4
2022-10-21T06:33:01.406Z,23.1
2022-10-21T06:34:01.425Z,22.2
2022-10-21T06:35:01.257Z,22.5
2022-10-21T06:36:01.288Z,22.5
2022-10-21T06:37:02.035Z,22.3
2022-10-21T06:38:01.175Z,22.4
2022-10-21T06:39:01.158Z,22.1
2022-10-21T06:40:01.155Z,22.1
2022-10-21T06:41:01.050Z,22
2022-10-21T06:42:01.473Z,21.5
2022-10-21T06:43:01.294Z,21.2
2022-10-21T06:44:01.350Z,21
2022-10-21T06:45:01.697Z,21.2
2022-10-21T06:46:01.088Z,21.2
2022-10-21T06:47:01.287Z,21
2022-10-21T06:48:01.563Z,21
2022-10-21T06:49:01.919Z,21.2
2022-10-21T06:50:05.595Z,21.4
2022-10-21T06:51:01.221Z,21.4
2022-10-21T06:52:01.512Z,21.4
2022-10-21T06:53:01.238Z,21.3
2022-10-21T06:54:01.180Z,21.4
2022-10-21T06:55:08.609Z,21.7
2022-10-21T06:56:00.802Z,21.4
2022-10-21T06:57:01.148Z,21.1
2022-10-21T06:58:01.208Z,21.7
2022-10-21T06:59:01.072Z,21.6
2022-10-21T07:00:11.453Z,21.4
2022-10-21T07:01:01.926Z,21.9
2022-10-21T07:02:01.460Z,21.7
2022-10-21T07:03:01.240Z,21.3
2022-10-21T07:04:01.691Z,20.9
2022-10-21T07:05:14.634Z,21
2022-10-21T07:06:01.118Z,21
2022-10-21T07:07:01.134Z,20.9
2022-10-21T07:08:01.254Z,20.7
2022-10-21T07:09:01.642Z,20.2
2022-10-21T07:10:16.934Z,19.9
2022-10-21T07:11:01.640Z,19.9
2022-10-21T07:12:01.169Z,19.9
2022-10-21T07:13:01.159Z,19.2
2022-10-21T07:14:01.070Z,18.8
2022-10-21T07:15:01.073Z,18.8
2022-10-21T07:16:00.795Z,18
2022-10-21T07:17:00.769Z,18
2022-10-21T07:18:00.409Z,17.8
2022-10-21T07:19:00.163Z,17.2
2022-10-21T07:19:59.863Z,17
2022-10-21T07:21:01.495Z,16.8
2022-10-21T07:22:01.117Z,16
2022-10-21T07:23:01.105Z,16.1
2022-10-21T07:24:01.124Z,15.9
2022-10-21T07:26:01.914Z,16.5
2022-10-21T07:27:01.239Z,15.8
2022-10-21T07:28:01.146Z,15.6
2022-10-21T07:29:01.319Z,15.3
2022-10-21T07:30:01.185Z,15.1
2022-10-21T07:31:01.990Z,15.5
2022-10-21T07:32:02.601Z,15.4
2022-10-21T07:33:01.524Z,15.4
2022-10-21T07:34:01.296Z,15.5
2022-10-21T07:35:01.177Z,15.5
2022-10-21T07:36:00.905Z,15.6
2022-10-21T07:37:01.106Z,15.7
2022-10-21T07:38:01.126Z,15.1
2022-10-21T07:39:01.119Z,14.9
2022-10-21T07:40:01.130Z,15
2022-10-21T07:41:01.377Z,15
2022-10-21T07:42:01.540Z,15.3
2022-10-21T07:43:02.386Z,15.1
2022-10-21T07:44:01.154Z,14.9
2022-10-21T07:45:01.971Z,15.2
2022-10-21T07:46:04.415Z,15.4
2022-10-21T07:47:01.889Z,15.2
2022-10-21T07:48:01.664Z,15.2
2022-10-21T07:49:01.238Z,15.3
2022-10-21T07:50:01.306Z,15.3
2022-10-21T07:51:04.308Z,15.1
2022-10-21T07:52:01.255Z,14.7
2022-10-21T07:53:12.392Z,14.9
2022-10-21T07:54:01.113Z,15.3
2022-10-21T07:55:01.159Z,15.1
2022-10-21T07:56:01.474Z,15.3
2022-10-21T07:57:01.257Z,15.4
2022-10-21T07:58:02.097Z,15.3
2022-10-21T07:59:02.057Z,14.7
2022-10-21T08:00:01.230Z,13.6
2022-10-21T08:01:01.688Z,13
2022-10-21T08:02:01.174Z,12.6
2022-10-21T08:03:01.812Z,12.1
2022-10-21T08:04:01.425Z,12.6
2022-10-21T08:05:01.102Z,12.4
2022-10-21T08:06:01.080Z,12.7
2022-10-21T08:07:01.065Z,12.1
2022-10-21T08:08:01.384Z,11.5
2022-10-21T08:09:01.638Z,10.8
2022-10-21T08:10:01.566Z,11.2
2022-10-21T08:11:01.151Z,11
2022-10-21T08:12:01.564Z,11
2022-10-21T08:13:01.122Z,10.9
2022-10-21T08:14:00.818Z,9.3
2022-10-21T08:15:00.411Z,9.4
2022-10-21T08:16:00.173Z,9.2
2022-10-21T08:17:01.567Z,9.9
2022-10-21T08:18:01.043Z,10.2
2022-10-21T08:19:01.075Z,10.4
2022-10-21T08:20:01.065Z,10.2
2022-10-21T08:21:01.073Z,10.3
2022-10-21T08:22:01.074Z,10.2
2022-10-21T08:23:01.141Z,10.5
2022-10-21T08:24:01.335Z,10.3
2022-10-21T08:25:01.192Z,10.5
2022-10-21T08:26:01.481Z,10.4
2022-10-21T08:27:01.107Z,10.4
2022-10-21T08:28:01.116Z,9.3
2022-10-21T08:29:01.133Z,8.4
2022-10-21T08:30:01.123Z,8.5
2022-10-21T08:31:05.215Z,8.4
2022-10-21T08:32:01.592Z,8.6
2022-10-21T08:33:01.529Z,8.2
2022-10-21T08:34:01.105Z,8.9
2022-10-21T08:35:00.724Z,9
2022-10-21T08:36:08.415Z,8.4
2022-10-21T08:37:02.083Z,8
2022-10-21T08:38:01.984Z,8.1
2022-10-21T08:39:01.073Z,8
2022-10-21T08:40:01.093Z,7.9
2022-10-21T08:41:10.997Z,7.5
2022-10-21T08:42:01.494Z,7.1
2022-10-21T08:43:01.136Z,7
2022-10-21T08:44:01.347Z,6.9
2022-10-21T08:45:01.282Z,6.7
2022-10-21T08:46:13.985Z,7.8
2022-10-21T08:47:01.221Z,7.7
2022-10-21T08:48:01.164Z,7.7
2022-10-21T08:49:01.340Z,7.2
2022-10-21T08:50:01.316Z,7.3
2022-10-21T08:51:16.110Z,6.4
2022-10-21T08:52:02.073Z,5.9
2022-10-21T08:53:01.074Z,5.9
2022-10-21T08:54:01.185Z,5.9
2022-10-21T08:55:01.169Z,6.3
2022-10-21T08:56:01.207Z,7.2
2022-10-21T08:57:00.794Z,7
2022-10-21T08:58:00.481Z,7
2022-10-21T08:59:00.188Z,7.3
2022-10-21T08:59:59.753Z,6.5
2022-10-21T09:01:01.786Z,6.7
2022-10-21T09:02:01.075Z,6.7
2022-10-21T09:03:01.229Z,7.1
2022-10-21T09:04:01.100Z,7.2
2022-10-21T09:05:01.293Z,7.2
2022-10-21T09:06:01.154Z,6.8
2022-10-21T09:07:01.218Z,6.7
2022-10-21T09:08:01.474Z,6.4
2022-10-21T09:09:01.305Z,6.9
2022-10-21T09:10:01.979Z,7.6
2022-10-21T09:11:01.071Z,7.5
2022-10-21T09:12:00.773Z,7.7
2022-10-21T09:13:00.414Z,7.7
2022-10-21T09:14:00.314Z,6.5
2022-10-21T09:15:00.286Z,5.7
2022-10-21T09:15:59.982Z,5.4
2022-10-21T09:16:59.681Z,5.4
2022-10-21T09:18:01.839Z,4.6
2022-10-21T09:19:01.459Z,4.5
2022-10-21T09:20:02.581Z,5.5
2022-10-21T09:21:04.699Z,5.4
2022-10-21T09:22:10.827Z,5.5
2022-10-21T09:23:02.387Z,5.7
2022-10-21T09:24:02.309Z,6
2022-10-21T09:25:01.063Z,5.9
2022-10-21T09:26:01.323Z,5.7
2022-10-21T09:27:02.010Z,6.1
2022-10-21T09:28:01.318Z,5.9
2022-10-21T09:29:01.109Z,5.6
2022-10-21T09:30:01.548Z,5.6
2022-10-21T09:31:01.173Z,5.4
2022-10-21T09:32:02.660Z,5.2
2022-10-21T09:33:02.108Z,5.1
2022-10-21T09:34:01.438Z,5
2022-10-21T09:35:02.712Z,5.1
2022-10-21T09:36:01.324Z,5.2
2022-10-21T09:37:01.847Z,5.5
2022-10-21T09:38:02.601Z,5.6
2022-10-21T09:39:01.913Z,5.5
2022-10-21T09:40:01.532Z,5.7
2022-10-21T09:41:01.292Z,5.9
2022-10-21T09:42:03.802Z,6.5
2022-10-21T09:43:01.133Z,5.7
2022-10-21T09:44:01.058Z,5.7
2022-10-21T09:45:01.844Z,7.5
2022-10-21T09:46:01.132Z,6
2022-10-21T09:47:01.597Z,6.6
2022-10-21T09:48:01.134Z,6.2
2022-10-21T09:49:36.312Z,6.4
2022-10-21T09:50:07.445Z,6.2
2022-10-21T09:51:01.861Z,6.1
2022-10-21T09:52:01.771Z,6.3
2022-10-21T09:53:01.449Z,6.1
2022-10-21T09:54:01.055Z,5.7
2022-10-21T09:55:01.455Z,6
2022-10-21T09:56:01.289Z,6.4
2022-10-21T09:57:00.763Z,6.2
2022-10-21T09:58:00.478Z,6.3
2022-10-21T09:59:02.922Z,6.3
2022-10-21T10:00:01.136Z,6.5
2022-10-21T10:01:01.094Z,6.4
2022-10-21T10:02:01.195Z,6.2
2022-10-21T10:03:01.566Z,6.3
2022-10-21T10:04:02.302Z,6.1
2022-10-21T10:05:01.142Z,5.9
2022-10-21T10:06:00.809Z,5.8
2022-10-21T10:07:04.569Z,5.5
2022-10-21T10:08:01.892Z,5.1
2022-10-21T10:09:01.734Z,5.3
2022-10-21T10:10:01.374Z,4.9
2022-10-21T10:11:01.052Z,5.1
2022-10-21T10:12:06.376Z,5.5
2022-10-21T10:13:01.193Z,4.3
2022-10-21T10:14:02.256Z,4.7
2022-10-21T10:15:01.983Z,4.8
2022-10-21T10:16:01.406Z,4.9
2022-10-21T10:17:09.297Z,4.2
2022-10-21T10:18:02.524Z,4.1
2022-10-21T10:19:01.101Z,2.8
2022-10-21T10:20:01.175Z,2.8
2022-10-21T10:21:01.459Z,2.7
2022-10-21T10:22:11.988Z,2.8
2022-10-21T10:23:01.140Z,3.7
2022-10-21T10:24:01.148Z,2.4
2022-10-21T10:25:01.259Z,1.5
2022-10-21T10:26:01.172Z,1.9
2022-10-21T10:27:14.021Z,2.2
2022-10-21T10:28:01.055Z,2.6
2022-10-21T10:29:01.066Z,2.6
2022-10-21T10:30:01.110Z,2.6
2022-10-21T10:31:01.086Z,2.3
2022-10-21T10:32:16.194Z,1.9
2022-10-21T10:33:02.145Z,1.8
2022-10-21T10:34:02.158Z,1.8
2022-10-21T10:35:01.281Z,1.7
2022-10-21T10:36:05.160Z,1.5
2022-10-21T10:37:01.121Z,2
2022-10-21T10:38:01.144Z,2
2022-10-21T10:39:01.145Z,2.4
2022-10-21T10:40:01.135Z,3
2022-10-21T10:41:01.408Z,2.5
2022-10-21T10:42:01.678Z,2.3
2022-10-21T10:43:01.083Z,1.3
2022-10-21T10:44:01.081Z,1.7
2022-10-21T10:45:01.073Z,2.1
2022-10-21T10:46:01.085Z,1.5
2022-10-21T10:47:01.113Z,2.3
2022-10-21T10:48:01.094Z,2
2022-10-21T10:49:01.092Z,2
2022-10-21T10:50:01.128Z,2.1
2022-10-21T10:51:01.137Z,1.8
2022-10-21T10:52:01.118Z,1.7
2022-10-21T10:53:01.753Z,2.2
2022-10-21T10:54:01.730Z,2.3
2022-10-21T10:55:01.783Z,2.3
2022-10-21T10:56:01.815Z,2
2022-10-21T10:57:01.967Z,1.8
2022-10-21T10:58:10.781Z,1.9
2022-10-21T10:59:01.059Z,2.1
2022-10-21T11:00:01.068Z,1.7
2022-10-21T11:01:01.121Z,2.1
2022-10-21T11:02:01.145Z,1.6
2022-10-21T11:03:01.686Z,2.3
2022-10-21T11:04:01.082Z,2.3
2022-10-21T11:05:01.127Z,2.4
2022-10-21T11:06:01.238Z,2.1
2022-10-21T11:07:01.040Z,1.9
2022-10-21T11:08:01.124Z,2.1
2022-10-21T11:09:01.090Z,1.6
2022-10-21T11:10:01.132Z,1.6
2022-10-21T11:11:01.147Z,1.6
2022-10-21T11:12:01.150Z,1.7
2022-10-21T11:13:01.256Z,2.1
2022-10-21T11:14:02.086Z,2.3
2022-10-21T11:15:02.000Z,2.1
2022-10-21T11:16:01.070Z,2.1
2022-10-21T11:17:01.393Z,2.3
2022-10-21T11:18:17.129Z,1.9
2022-10-21T11:19:01.089Z,1.7
2022-10-21T11:20:01.348Z,1.5
2022-10-21T11:21:01.486Z,2.3
2022-10-21T11:22:05.801Z,2.5
2022-10-21T11:23:01.152Z,2.1
2022-10-21T11:24:01.125Z,2.1
2022-10-21T11:25:01.043Z,2.1
2022-10-21T11:26:01.126Z,2
2022-10-21T11:27:01.136Z,2.3
2022-10-21T11:28:01.142Z,2.3
2022-10-21T11:29:04.726Z,2.2
2022-10-21T11:30:01.547Z,2.4
2022-10-21T11:31:01.253Z,2.4
2022-10-21T11:32:11.685Z,2.5
2022-10-21T11:33:01.760Z,2.4
2022-10-21T11:34:01.769Z,2.9
2022-10-21T11:35:01.383Z,3.2
2022-10-21T11:36:01.104Z,2.9
2022-10-21T11:37:01.110Z,2.4
2022-10-21T11:38:01.490Z,2.6
2022-10-21T11:39:01.222Z,3.1
2022-10-21T11:40:01.128Z,2.7
2022-10-21T11:41:01.098Z,2.9
2022-10-21T11:42:01.162Z,3
2022-10-21T11:43:01.136Z,3.4
2022-10-21T11:44:01.200Z,3.4
2022-10-21T11:45:01.051Z,3.5
2022-10-21T11:46:01.085Z,3.2
2022-10-21T11:47:01.272Z,3.1
2022-10-21T11:48:01.933Z,3.1
2022-10-21T11:49:02.325Z,3.7
2022-10-21T11:50:01.809Z,3.1
2022-10-21T11:51:05.287Z,3.2
2022-10-21T11:52:01.084Z,3.5
2022-10-21T11:53:01.100Z,3.4
2022-10-21T11:54:01.109Z,3.4
2022-10-21T11:55:10.068Z,3.5
2022-10-21T11:56:01.644Z,3.7
2022-10-21T11:57:01.127Z,3.7
2022-10-21T11:58:03.546Z,4.2
2022-10-21T11:59:01.145Z,3.9
2022-10-21T12:00:01.147Z,4
2022-10-21T12:01:01.160Z,4.1
2022-10-21T12:02:04.188Z,4.6
2022-10-21T12:03:05.972Z,4.6
2022-10-21T12:04:01.568Z,4.9
2022-10-21T12:05:01.073Z,5
2022-10-21T12:06:01.241Z,4.5
2022-10-21T12:07:01.951Z,4.3
2022-10-21T12:08:08.407Z,4.1
2022-10-21T12:09:01.092Z,4.2
2022-10-21T12:10:01.123Z,4.6
2022-10-21T12:11:01.143Z,4.3
2022-10-21T12:12:01.210Z,4.4
2022-10-21T12:13:11.734Z,4.6
2022-10-21T12:14:02.333Z,4.6
2022-10-21T12:15:01.320Z,4.3
2022-10-21T12:16:01.959Z,4.8
2022-10-21T12:17:01.058Z,4.6
2022-10-21T12:18:15.985Z,4.7
2022-10-21T12:19:01.177Z,4.8
2022-10-21T12:20:01.071Z,4.5
2022-10-21T12:21:01.238Z,5
2022-10-21T12:22:01.237Z,5.3
2022-10-21T12:23:01.094Z,4.9
2022-10-21T12:24:01.348Z,5.1
2022-10-21T12:25:01.190Z,5.1
2022-10-21T12:26:01.154Z,5
2022-10-21T12:27:01.454Z,4.9
2022-10-21T12:28:01.270Z,4.7
2022-10-21T12:29:02.060Z,4.7
2022-10-21T12:30:01.131Z,4.8
2022-10-21T12:31:01.135Z,4.9
2022-10-21T12:32:01.155Z,4.9
2022-10-21T12:33:01.149Z,4.6
2022-10-21T12:34:01.157Z,4.9
2022-10-21T12:35:01.055Z,5
2022-10-21T12:36:01.149Z,4.9
2022-10-21T12:37:00.773Z,4.9
2022-10-21T12:38:01.244Z,5.3
2022-10-21T12:39:02.139Z,5.4
2022-10-21T12:40:01.087Z,5.3
2022-10-21T12:41:01.228Z,5.5
2022-10-21T12:42:01.220Z,5.3
2022-10-21T12:43:01.121Z,5.3
2022-10-21T12:44:01.127Z,5.3
2022-10-21T12:45:01.120Z,5.4
2022-10-21T12:46:01.184Z,5.8
2022-10-21T12:47:01.345Z,6
2022-10-21T12:48:01.140Z,6.2
2022-10-21T12:49:01.601Z,6.5
2022-10-21T12:50:01.973Z,6.4
2022-10-21T12:51:01.764Z,5.9
2022-10-21T12:52:01.132Z,6.4
2022-10-21T12:53:01.087Z,6.4
2022-10-21T12:54:01.091Z,6.4
2022-10-21T12:55:01.109Z,6.3
2022-10-21T12:56:01.409Z,6.4
2022-10-21T12:57:01.449Z,6.6
2022-10-21T12:58:00.778Z,6.7
2022-10-21T12:59:00.369Z,7.2
2022-10-21T12:59:59.976Z,7.2
2022-10-21T13:00:59.817Z,7.2
2022-10-21T13:02:01.833Z,7.4
2022-10-21T13:03:01.288Z,7.7
2022-10-21T13:04:01.345Z,7.8
2022-10-21T13:05:02.049Z,7.7
2022-10-21T13:06:01.344Z,8
2022-10-21T13:07:02.067Z,8.1
2022-10-21T13:08:02.065Z,8.3
2022-10-21T13:09:01.366Z,8.7
2022-10-21T13:10:01.202Z,9.1
2022-10-21T13:11:01.591Z,9.3
2022-10-21T13:12:01.121Z,10.5
2022-10-21T13:13:01.100Z,10.3
2022-10-21T13:14:01.115Z,10.4
2022-10-21T13:15:01.434Z,10.7
2022-10-21T13:16:01.686Z,11
2022-10-21T13:17:01.237Z,11.3
2022-10-21T13:18:01.581Z,11.9
2022-10-21T13:19:01.377Z,12
2022-10-21T13:20:01.153Z,11.3
2022-10-21T13:21:01.139Z,12.5
2022-10-21T13:22:01.163Z,11.7
2022-10-21T13:23:03.677Z,11.8
2022-10-21T13:24:01.451Z,11.8
2022-10-21T13:25:01.086Z,11.9
2022-10-21T13:26:01.506Z,12.1
2022-10-21T13:27:01.082Z,12.1
2022-10-21T13:28:01.084Z,12.4
2022-10-21T13:29:01.108Z,12.6
2022-10-21T13:30:01.514Z,12.3
2022-10-21T13:31:00.903Z,13
2022-10-21T13:32:01.195Z,12.9
2022-10-21T13:33:01.187Z,13.7
2022-10-21T13:34:02.189Z,14
2022-10-21T13:35:02.391Z,14
2022-10-21T13:36:01.150Z,14.4